Time;durP1;ratioP1;P1;durP2;ratioP2;P2;SDS_P1;SDS_P2;PMS_P1;PMS_P2;Temp;Humidity;BMP_temperature;BMP_pressure;BME280_temperature;BME280_humidity;BME280_pressure;Samples;Min_cycle;Max_cycle;Signal;HPM_P1;HPM_P2
2023/04/16 00:00:08;;;;;;;306.67;130.00;;;;;;;14.15;58.96;99079.84;291746;33;4661;-73
2023/04/16 00:00:18;;;;;;;305.92;131.07;;;;;;;14.16;59.04;99076.25;295799;32;5050;-73
2023/04/16 00:00:29;;;;;;;308.13;132.90;;;;;;;14.15;58.75;99084.25;292375;33;5431;-74
2023/04/16 00:00:40;;;;;;;308.05;131.18;;;;;;;14.16;58.95;99086.78;296216;33;859;-74
2023/04/16 00:00:50;;;;;;;307.05;129.15;;;;;;;14.17;59.07;99083.22;291909;33;6159;-73
2023/04/16 00:01:00;;;;;;;306.83;128.20;;;;;;;14.17;59.09;99080.56;292395;33;6264;-74
2023/04/16 00:01:11;;;;;;;306.63;130.48;;;;;;;14.19;59.15;99077.84;290494;33;3159;-74
2023/04/16 00:01:21;;;;;;;307.73;131.50;;;;;;;14.18;58.98;99078.78;287247;34;3031;-74
2023/04/16 00:01:32;;;;;;;309.00;131.73;;;;;;;14.20;59.20;99082.16;284950;34;6751;-74
2023/04/16 00:01:42;;;;;;;308.67;131.87;;;;;;;14.19;58.55;99081.31;286618;34;4768;-74
2023/04/16 00:01:52;;;;;;;308.10;131.50;;;;;;;14.18;58.24;99082.25;285164;34;3481;-74
2023/04/16 00:02:03;;;;;;;307.67;132.07;;;;;;;14.19;58.65;99080.47;281374;34;4992;-74
2023/04/16 00:02:13;;;;;;;311.27;134.10;;;;;;;14.17;58.53;99080.56;277947;35;5910;-74
2023/04/16 00:02:24;;;;;;;311.73;135.43;;;;;;;14.17;58.76;99080.56;278571;35;4500;-74
2023/04/16 00:02:34;;;;;;;311.05;134.75;;;;;;;14.15;58.87;99084.25;277636;35;6828;-74
2023/04/16 00:02:45;;;;;;;306.90;132.90;;;;;;;14.12;58.76;99080.03;277870;35;7692;-74
2023/04/16 00:02:55;;;;;;;306.33;130.40;;;;;;;14.10;58.68;99081.91;275969;35;4396;-74
2023/04/16 00:03:05;;;;;;;305.38;127.47;;;;;;;14.12;58.90;99085.28;275058;35;8429;-74
2023/04/16 00:03:16;;;;;;;304.07;126.50;;;;;;;14.12;58.87;99079.19;274838;35;8392;-73
2023/04/16 00:03:26;;;;;;;304.88;129.45;;;;;;;14.12;58.80;99077.38;274907;35;9106;-73
2023/04/16 00:03:37;;;;;;;306.23;129.10;;;;;;;14.10;58.74;99079.28;274903;35;3693;-74
2023/04/16 00:03:47;;;;;;;308.65;128.75;;;;;;;14.09;58.82;99080.22;271964;35;9361;-73
2023/04/16 00:03:57;;;;;;;307.07;127.23;;;;;;;14.11;58.81;99082.75;271363;35;6321;-73
2023/04/16 00:04:08;;;;;;;308.52;130.48;;;;;;;14.13;58.64;99078.25;274333;35;4834;-73
2023/04/16 00:04:19;;;;;;;307.23;129.67;;;;;;;14.13;59.32;99081.72;272219;36;6792;-73
2023/04/16 00:06:05;;;;;;;301.51;124.44;;;;;;;13.94;58.70;99083.81;2479706;27;20295;-74
2023/04/16 00:06:15;;;;;;;304.20;128.17;;;;;;;13.94;59.19;99078.56;350036;28;4603;-74
2023/04/16 00:06:26;;;;;;;302.10;126.78;;;;;;;13.91;59.05;99076.13;349307;28;988;-74
2023/04/16 00:06:37;;;;;;;303.13;127.78;;;;;;;13.92;59.47;99072.53;347888;28;4674;-74
2023/04/16 00:06:47;;;;;;;303.60;127.40;;;;;;;13.95;59.33;99078.47;345964;28;898;-74
2023/04/16 00:06:58;;;;;;;305.17;128.20;;;;;;;13.97;59.52;99083.63;344990;28;4544;-73
2023/04/16 00:07:08;;;;;;;305.70;128.83;;;;;;;13.99;59.21;99084.38;347505;28;1272;-73
2023/04/16 00:07:18;;;;;;;307.02;130.45;;;;;;;14.01;59.37;99074.59;346588;28;4269;-74
2023/04/16 00:07:29;;;;;;;307.07;131.03;;;;;;;13.98;59.05;99075.63;346604;28;4351;-74
2023/04/16 00:07:39;;;;;;;306.10;130.15;;;;;;;13.95;59.13;99077.59;345107;28;4079;-74
2023/04/16 00:07:50;;;;;;;306.20;130.13;;;;;;;13.97;59.20;99075.72;347056;28;3012;-74
2023/04/16 00:08:01;;;;;;;304.75;128.20;;;;;;;13.97;59.22;99075.72;347419;28;1720;-74
2023/04/16 00:08:11;;;;;;;305.67;128.98;;;;;;;13.97;59.48;99075.72;344045;28;4774;-73
2023/04/16 00:08:25;;;;;;;304.53;128.63;;;;;;;13.99;58.99;99073.84;348520;28;1970;-73
2023/04/16 00:08:36;;;;;;;306.35;129.30;;;;;;;14.02;58.97;99073.66;347891;28;3984;-74
2023/04/16 00:08:46;;;;;;;306.50;129.55;;;;;;;14.01;58.86;99069.34;345941;28;2158;-74
2023/04/16 00:08:57;;;;;;;306.87;130.10;;;;;;;14.05;58.95;99078.72;344531;28;3616;-74
2023/04/16 00:09:07;;;;;;;305.33;130.80;;;;;;;14.06;59.08;99072.50;346770;28;1843;-74
2023/04/16 00:09:17;;;;;;;306.60;131.20;;;;;;;14.05;58.92;99075.25;346671;28;3636;-74
2023/04/16 00:09:28;;;;;;;305.13;129.27;;;;;;;13.99;59.11;99073.84;346056;28;1138;-74
2023/04/16 00:09:38;;;;;;;307.67;128.40;;;;;;;13.95;59.23;99067.94;343568;28;4511;-73
2023/04/16 00:09:49;;;;;;;304.13;123.37;;;;;;;13.92;59.12;99067.28;347064;28;3607;-75
2023/04/16 00:09:59;;;;;;;306.55;126.80;;;;;;;13.90;59.29;99074.44;348170;28;4039;-74
2023/04/16 00:10:10;;;;;;;303.60;125.65;;;;;;;13.91;59.02;99073.47;346835;28;3637;-74
2023/04/16 00:10:20;;;;;;;306.17;128.87;;;;;;;13.93;59.13;99074.22;341390;28;4242;-74
2023/04/16 00:10:31;;;;;;;304.90;126.97;;;;;;;13.93;59.16;99068.97;344022;28;3369;-74
2023/04/16 00:10:41;;;;;;;306.27;129.47;;;;;;;13.97;59.38;99071.31;342231;28;3380;-74
2023/04/16 00:10:52;;;;;;;304.98;128.43;;;;;;;13.99;59.12;99073.84;341760;28;3486;-74
2023/04/16 00:11:04;;;;;;;306.50;129.98;;;;;;;14.03;59.41;99070.09;342251;28;4310;-74
2023/04/16 00:11:14;;;;;;;306.85;128.55;;;;;;;14.03;59.12;99064.81;346126;28;1406;-74
2023/04/16 00:11:25;;;;;;;310.17;129.68;;;;;;;14.04;59.45;99070.94;342779;28;4559;-74
2023/04/16 00:11:35;;;;;;;309.40;128.47;;;;;;;14.07;59.35;99068.94;345902;28;3686;-73
2023/04/16 00:11:46;;;;;;;310.63;131.95;;;;;;;14.09;59.23;99071.47;346986;28;5751;-74
2023/04/16 00:11:56;;;;;;;308.87;130.27;;;;;;;14.08;59.19;99062.75;345243;28;1363;-74
2023/04/16 00:12:07;;;;;;;311.85;131.20;;;;;;;14.10;58.96;99071.38;345441;28;3519;-74
2023/04/16 00:12:18;;;;;;;311.15;129.38;;;;;;;14.13;59.13;99071.19;346118;28;1313;-74
2023/04/16 00:12:28;;;;;;;311.33;131.00;;;;;;;14.13;59.32;99071.19;342427;28;3732;-74
2023/04/16 00:12:38;;;;;;;305.98;127.63;;;;;;;14.14;59.09;99064.13;343287;28;1329;-74
2023/04/16 00:12:49;;;;;;;305.60;127.97;;;;;;;14.16;59.00;99065.72;336898;29;4634;-74
2023/04/16 00:12:59;;;;;;;306.65;128.60;;;;;;;14.15;58.88;99071.94;340036;28;1493;-74
2023/04/16 00:13:10;;;;;;;309.33;130.77;;;;;;;14.17;59.07;99069.22;340432;28;3725;-75
2023/04/16 00:13:21;;;;;;;307.13;128.93;;;;;;;14.15;58.69;99069.31;338330;29;866;-74
2023/04/16 00:13:31;;;;;;;307.52;128.50;;;;;;;14.15;58.46;99063.19;337284;29;4713;-74
2023/04/16 00:13:42;;;;;;;306.73;128.70;;;;;;;14.15;58.67;99063.19;337917;29;1219;-74
2023/04/16 00:13:52;;;;;;;306.08;131.10;;;;;;;14.18;58.68;99066.47;330895;29;4755;-74
2023/04/16 00:14:03;;;;;;;306.07;131.60;;;;;;;14.17;58.50;99067.41;336415;29;1302;-74
2023/04/16 00:14:14;;;;;;;306.70;131.05;;;;;;;14.17;58.71;99064.78;335108;29;4165;-74
2023/04/16 00:14:24;;;;;;;304.23;128.75;;;;;;;14.13;58.93;99065.06;337641;29;5057;-74
2023/04/16 00:14:35;;;;;;;303.43;127.57;;;;;;;14.12;58.79;99064.22;335438;29;4234;-74
2023/04/16 00:14:45;;;;;;;303.75;127.78;;;;;;;14.14;58.96;99072.03;338631;29;1798;-74
2023/04/16 00:14:55;;;;;;;305.33;127.30;;;;;;;14.14;58.78;99064.97;335365;29;4687;-74
2023/04/16 00:15:06;;;;;;;305.35;127.40;;;;;;;14.14;58.91;99062.34;335523;29;1603;-75
2023/04/16 00:15:17;;;;;;;304.35;127.50;;;;;;;14.15;59.35;99064.03;332804;29;4603;-74
2023/04/16 00:15:27;;;;;;;306.57;129.20;;;;;;;14.19;59.73;99068.16;331797;29;934;-74
2023/04/16 00:15:37;;;;;;;306.90;130.00;;;;;;;14.20;59.90;99064.59;331003;29;4480;-73
2023/04/16 00:15:48;;;;;;;306.70;130.23;;;;;;;14.20;59.59;99067.22;333838;29;4847;-73
2023/04/16 00:15:58;;;;;;;305.13;128.60;;;;;;;14.21;59.91;99062.81;331409;29;3420;-74
2023/04/16 00:16:09;;;;;;;306.58;129.57;;;;;;;14.23;60.25;99067.03;333990;29;4849;-75
2023/04/16 00:16:19;;;;;;;306.20;129.23;;;;;;;14.23;60.24;99061.75;326192;30;4549;-73
2023/04/16 00:16:29;;;;;;;307.33;131.23;;;;;;;14.22;59.82;99059.22;329902;29;4844;-73
2023/04/16 00:16:40;;;;;;;310.00;130.60;;;;;;;14.21;59.89;99063.66;329607;29;4032;-74
2023/04/16 00:16:50;;;;;;;311.17;131.50;;;;;;;14.22;59.35;99064.50;329273;29;3157;-74
2023/04/16 00:17:01;;;;;;;310.47;131.40;;;;;;;14.21;60.04;99074.19;325606;30;4145;-74
2023/04/16 00:17:11;;;;;;;308.30;131.30;;;;;;;14.21;59.94;99068.91;328920;29;2867;-74
2023/04/16 00:17:21;;;;;;;306.35;129.23;;;;;;;14.21;59.60;99068.06;332798;29;3647;-73
2023/04/16 00:17:32;;;;;;;303.93;126.97;;;;;;;14.20;59.51;99067.22;336323;29;4951;-74
2023/04/16 00:17:42;;;;;;;303.52;127.55;;;;;;;14.21;59.77;99074.19;330991;29;3751;-74
2023/04/16 00:17:53;;;;;;;308.40;129.70;;;;;;;14.20;59.60;99061.97;331458;29;5027;-74
2023/04/16 00:18:03;;;;;;;309.55;130.65;;;;;;;14.21;59.77;99068.91;330841;29;3554;-74
2023/04/16 00:18:13;;;;;;;308.30;129.90;;;;;;;14.21;59.28;99058.38;328424;29;3378;-73
2023/04/16 00:18:24;;;;;;;304.67;129.73;;;;;;;14.23;59.59;99064.41;325364;30;4217;-74
2023/04/16 00:18:34;;;;;;;304.85;131.07;;;;;;;14.25;59.53;99069.56;312220;31;4816;-74
2023/04/16 00:18:45;;;;;;;305.13;131.43;;;;;;;14.24;60.42;99065.25;313964;31;3611;-74
2023/04/16 00:18:55;;;;;;;304.10;131.00;;;;;;;14.23;60.24;99064.41;316278;30;4603;-74
2023/04/16 00:19:06;;;;;;;304.73;131.38;;;;;;;14.24;59.77;99071.34;319632;30;3349;-74
2023/04/16 00:19:16;;;;;;;306.67;133.33;;;;;;;14.24;59.93;99063.44;317586;30;4090;-75
2023/04/16 00:19:26;;;;;;;305.50;130.03;;;;;;;14.23;59.58;99067.03;316030;30;3560;-73
2023/04/16 00:19:37;;;;;;;306.05;130.15;;;;;;;14.23;59.69;99071.44;316620;31;4766;-74
2023/04/16 00:19:47;;;;;;;303.00;126.87;;;;;;;14.23;59.70;99067.03;318504;30;3797;-74
2023/04/16 00:19:58;;;;;;;303.88;128.27;;;;;;;14.25;59.75;99073.03;317517;30;2849;-75
2023/04/16 00:20:09;;;;;;;301.10;126.30;;;;;;;14.25;59.70;99070.41;315237;31;874;-74
2023/04/16 00:20:20;;;;;;;303.92;128.75;;;;;;;14.25;59.94;99070.41;310128;31;4255;-76
2023/04/16 00:20:30;;;;;;;303.95;130.98;;;;;;;14.26;59.93;99071.25;308408;31;3882;-73
2023/04/16 00:20:40;;;;;;;305.63;131.10;;;;;;;14.26;60.44;99069.47;307481;31;4617;-74
2023/04/16 00:20:51;;;;;;;305.73;131.03;;;;;;;14.27;59.81;99076.41;308767;31;3641;-74
2023/04/16 00:21:01;;;;;;;308.53;131.23;;;;;;;14.26;60.31;99066.81;305983;31;6518;-74
2023/04/16 00:21:11;;;;;;;306.55;130.32;;;;;;;14.26;60.10;99066.81;305370;32;3634;-74
2023/04/16 00:21:22;;;;;;;307.63;131.30;;;;;;;14.29;60.30;99071.91;303580;32;4662;-74
2023/04/16 00:21:32;;;;;;;304.83;130.48;;;;;;;14.28;59.84;99067.56;304608;32;3177;-74
2023/04/16 00:21:43;;;;;;;306.73;131.80;;;;;;;14.26;59.51;99072.09;301675;32;4756;-73
2023/04/16 00:21:53;;;;;;;304.65;129.82;;;;;;;14.25;59.44;99069.56;301716;32;3666;-73
2023/04/16 00:22:03;;;;;;;307.77;132.83;;;;;;;14.26;59.53;99071.25;301722;32;4653;-74
2023/04/16 00:22:14;;;;;;;306.33;132.10;;;;;;;14.25;59.48;99070.41;299575;32;3556;-73
2023/04/16 00:22:24;;;;;;;307.30;133.20;;;;;;;14.25;59.32;99075.66;295043;32;4834;-74
2023/04/16 00:22:35;;;;;;;306.90;132.60;;;;;;;14.26;59.21;99072.09;299540;32;2628;-74
2023/04/16 00:22:45;;;;;;;306.92;132.65;;;;;;;14.23;59.41;99064.41;298792;32;5133;-74
2023/04/16 00:22:55;;;;;;;306.70;131.00;;;;;;;14.26;59.95;99066.81;299473;32;4154;-74
2023/04/16 00:23:06;;;;;;;305.98;129.93;;;;;;;14.27;60.21;99076.41;298329;32;4556;-74
2023/04/16 00:23:16;;;;;;;306.53;129.80;;;;;;;14.28;60.51;99070.22;296233;33;4839;-74
2023/04/16 00:23:27;;;;;;;306.30;130.52;;;;;;;14.29;59.94;99074.53;295573;32;6536;-74
2023/04/16 00:23:37;;;;;;;306.63;131.90;;;;;;;14.31;59.99;99075.25;298010;33;862;-74
2023/04/16 00:23:47;;;;;;;306.87;133.97;;;;;;;14.31;59.63;99075.25;296391;33;4504;-74
2023/04/16 00:23:58;;;;;;;311.67;133.73;;;;;;;14.31;59.24;99075.25;297523;33;2594;-74
2023/04/16 00:24:08;;;;;;;311.50;134.17;;;;;;;14.32;59.54;99074.31;294274;33;4723;-74
2023/04/16 00:24:19;;;;;;;310.70;133.23;;;;;;;14.31;59.47;99075.25;297261;33;3548;-74
2023/04/16 00:24:29;;;;;;;307.90;135.87;;;;;;;14.30;59.39;99072.72;293597;33;4536;-74
2023/04/16 00:24:40;;;;;;;307.77;135.35;;;;;;;14.30;59.45;99073.56;292079;33;5939;-74
2023/04/16 00:24:50;;;;;;;307.80;134.30;;;;;;;14.31;59.30;99074.41;293966;33;4712;-73
2023/04/16 00:25:01;;;;;;;308.45;132.35;;;;;;;14.29;58.98;99073.69;292567;33;7211;-73
2023/04/16 00:25:12;;;;;;;312.27;133.50;;;;;;;14.29;59.23;99077.16;290597;33;5742;-73
2023/04/16 00:25:23;;;;;;;314.73;135.85;;;;;;;14.28;59.37;99075.47;290672;34;1331;-73
2023/04/16 00:25:33;;;;;;;313.73;136.73;;;;;;;14.30;59.23;99076.19;283273;34;7215;-74
2023/04/16 00:25:43;;;;;;;309.90;134.65;;;;;;;14.29;59.29;99071.91;285369;34;5663;-74
2023/04/16 00:25:56;;;;;;;310.20;135.10;;;;;;;14.30;59.33;99072.72;283317;34;4514;-73
2023/04/16 00:26:07;;;;;;;311.55;135.73;;;;;;;14.31;59.57;99075.25;282588;35;1327;-74
2023/04/16 00:26:17;;;;;;;311.52;135.43;;;;;;;14.32;59.29;99076.94;282569;34;4061;-74
2023/04/16 00:26:28;;;;;;;309.83;133.77;;;;;;;14.35;59.59;99072.41;282413;34;5439;-74
2023/04/16 00:26:39;;;;;;;308.83;134.95;;;;;;;14.35;60.03;99075.03;280499;35;4803;-73
2023/04/16 00:26:50;;;;;;;307.13;134.30;;;;;;;14.37;59.96;99081.06;282298;34;3008;-74
2023/04/16 00:27:00;;;;;;;307.90;134.90;;;;;;;14.36;60.15;99076.72;277324;35;8931;-74
2023/04/16 00:27:11;;;;;;;305.90;132.27;;;;;;;14.38;60.08;99085.38;276093;35;10280;-74
2023/04/16 00:27:21;;;;;;;308.27;131.07;;;;;;;14.38;60.33;99077.47;275728;35;6126;-73
2023/04/16 00:27:31;;;;;;;307.70;128.37;;;;;;;14.37;60.50;99078.44;276859;35;8383;-73
2023/04/16 00:27:42;;;;;;;309.97;130.33;;;;;;;14.36;60.48;99076.72;274285;35;10472;-73
2023/04/16 00:27:52;;;;;;;307.42;131.88;;;;;;;14.38;60.51;99077.47;277641;35;1163;-73
2023/04/16 00:28:03;;;;;;;308.83;135.17;;;;;;;14.37;60.18;99081.91;271905;35;8098;-74
2023/04/16 00:28:14;;;;;;;310.12;134.00;;;;;;;14.37;60.28;99081.06;272354;35;7604;-74
2023/04/16 00:29:56;;;;;;;298.88;124.05;;;;;;;14.37;59.23;99081.91;2486726;27;20497;-74
2023/04/16 00:30:06;;;;;;;304.67;131.93;;;;;;;14.38;59.35;99088.00;352146;27;4680;-74
2023/04/16 00:30:17;;;;;;;304.90;131.15;;;;;;;14.38;59.33;99090.66;351251;28;3609;-74
2023/04/16 00:30:27;;;;;;;308.23;134.83;;;;;;;14.37;59.50;99083.69;349340;28;5273;-74
2023/04/16 00:30:38;;;;;;;307.67;133.30;;;;;;;14.37;59.28;99084.53;349524;28;3377;-74
2023/04/16 00:30:49;;;;;;;308.15;133.75;;;;;;;14.37;59.24;99081.91;348574;28;4573;-74
2023/04/16 00:31:00;;;;;;;305.73;130.77;;;;;;;14.39;59.41;99087.06;349811;28;3349;-74
2023/04/16 00:31:10;;;;;;;307.70;131.90;;;;;;;14.37;59.65;99088.94;349205;28;4388;-74
2023/04/16 00:31:30;;;;;;;306.92;130.20;;;;;;;14.38;59.71;99090.66;348726;28;1315;-74
2023/04/16 00:31:41;;;;;;;307.73;131.02;;;;;;;14.37;59.95;99088.94;347235;28;3071;-73
2023/04/16 00:31:51;;;;;;;309.17;131.00;;;;;;;14.36;59.58;99087.25;345789;28;3970;-74
2023/04/16 00:32:01;;;;;;;305.30;130.07;;;;;;;14.36;59.88;99090.75;349993;28;4552;-74
2023/04/16 00:32:12;;;;;;;307.10;130.50;;;;;;;14.36;59.84;99084.63;347435;28;3565;-74
2023/04/16 00:32:22;;;;;;;305.75;129.95;;;;;;;14.36;59.67;99088.09;347748;28;1474;-74
2023/04/16 00:32:33;;;;;;;308.33;132.23;;;;;;;14.35;59.98;99082.94;346324;28;4717;-74
2023/04/16 00:32:43;;;;;;;307.33;131.63;;;;;;;14.35;60.30;99090.84;349031;28;895;-74
2023/04/16 00:32:53;;;;;;;309.63;133.17;;;;;;;14.35;60.37;99090.84;351387;27;3553;-74
2023/04/16 00:33:04;;;;;;;307.37;131.60;;;;;;;14.36;60.16;99089.91;351771;28;859;-74
2023/04/16 00:33:14;;;;;;;307.48;132.68;;;;;;;14.37;60.45;99084.53;347952;28;4643;-73
2023/04/16 00:33:25;;;;;;;305.98;131.82;;;;;;;14.37;60.63;99094.22;350103;28;3782;-74
2023/04/16 00:33:35;;;;;;;307.37;133.27;;;;;;;14.34;60.51;99090.00;347028;28;2919;-74
2023/04/16 00:33:45;;;;;;;308.37;132.53;;;;;;;14.35;60.76;99090.84;347059;28;3214;-74
2023/04/16 00:33:56;;;;;;;310.13;134.02;;;;;;;14.34;60.96;99090.00;345091;28;3358;-74
2023/04/16 00:34:07;;;;;;;308.85;133.07;;;;;;;14.33;61.10;99091.78;345902;28;1036;-74
2023/04/16 00:34:17;;;;;;;309.00;133.70;;;;;;;14.32;61.39;99090.09;342705;28;4815;-74
2023/04/16 00:34:27;;;;;;;306.93;132.30;;;;;;;14.32;61.69;99087.47;344353;28;1721;-74
2023/04/16 00:34:38;;;;;;;308.25;134.23;;;;;;;14.32;61.45;99092.72;344540;28;4582;-74
2023/04/16 00:34:48;;;;;;;306.83;133.80;;;;;;;14.32;61.59;99087.47;346228;28;855;-74
2023/04/16 00:34:58;;;;;;;309.55;134.63;;;;;;;14.34;61.76;99095.25;340446;28;4455;-73
2023/04/16 00:35:09;;;;;;;310.90;132.97;;;;;;;14.31;61.93;99096.31;343432;28;1286;-73
2023/04/16 00:35:19;;;;;;;312.93;134.57;;;;;;;14.32;61.72;99094.50;344106;28;4643;-74
2023/04/16 00:35:30;;;;;;;308.70;132.93;;;;;;;14.30;62.13;99093.78;347358;28;1505;-74
2023/04/16 00:35:40;;;;;;;308.83;133.53;;;;;;;14.29;62.09;99092.97;345208;28;4160;-74
2023/04/16 00:35:50;;;;;;;308.25;133.63;;;;;;;14.29;61.92;99092.97;344725;28;4830;-74
2023/04/16 00:36:01;;;;;;;308.27;134.70;;;;;;;14.28;62.13;99096.53;343868;28;3768;-74
2023/04/16 00:36:11;;;;;;;307.08;132.88;;;;;;;14.29;62.17;99092.09;341636;28;4286;-74
2023/04/16 00:36:22;;;;;;;307.57;131.53;;;;;;;14.29;62.08;99092.97;346008;28;3610;-74
2023/04/16 00:36:33;;;;;;;311.00;132.60;;;;;;;14.28;61.87;99093.91;343667;28;4576;-74
2023/04/16 00:36:43;;;;;;;309.27;130.07;;;;;;;14.30;61.74;99094.63;342908;28;3569;-74
2023/04/16 00:36:54;;;;;;;308.00;130.67;;;;;;;14.30;62.10;99097.25;340991;28;4070;-74
2023/04/16 00:37:04;;;;;;;306.48;128.70;;;;;;;14.29;61.85;99092.97;342190;28;881;-74
2023/04/16 00:37:15;;;;;;;311.80;132.43;;;;;;;14.29;61.99;99092.97;340126;28;4385;-74
2023/04/16 00:37:25;;;;;;;310.70;130.82;;;;;;;14.29;62.12;99100.00;340506;29;4621;-74
2023/04/16 00:37:35;;;;;;;312.03;132.33;;;;;;;14.30;62.14;99093.78;337958;29;3858;-74
2023/04/16 00:37:46;;;;;;;306.35;130.13;;;;;;;14.30;62.15;99094.63;340226;28;5763;-74
2023/04/16 00:37:56;;;;;;;308.67;133.80;;;;;;;14.32;61.90;99097.16;339975;28;4630;-74
2023/04/16 00:38:07;;;;;;;308.30;133.67;;;;;;;14.31;62.28;99098.09;342826;28;1516;-74
2023/04/16 00:38:17;;;;;;;311.48;135.65;;;;;;;14.29;62.35;99098.22;337800;28;4768;-73
2023/04/16 00:38:29;;;;;;;309.87;133.47;;;;;;;14.30;62.52;99099.03;339446;28;1286;-73
2023/04/16 00:38:39;;;;;;;310.23;132.88;;;;;;;14.31;62.59;99101.56;335870;29;4818;-74
2023/04/16 00:38:50;;;;;;;307.77;129.70;;;;;;;14.31;62.43;99104.19;335433;29;2834;-74
2023/04/16 00:39:00;;;;;;;310.30;133.10;;;;;;;14.29;62.72;99092.97;336015;29;4787;-74
2023/04/16 00:39:11;;;;;;;309.20;131.55;;;;;;;14.29;62.54;99090.31;339454;29;900;-74
2023/04/16 00:39:21;;;;;;;310.30;132.47;;;;;;;14.29;62.72;99098.22;338510;28;3800;-74
2023/04/16 00:39:31;;;;;;;309.47;130.80;;;;;;;14.28;62.51;99103.59;341603;28;1190;-74
2023/04/16 00:39:42;;;;;;;312.08;132.95;;;;;;;14.29;62.68;99095.59;333796;29;4713;-74
2023/04/16 00:39:52;;;;;;;312.17;134.23;;;;;;;14.28;62.51;99103.59;342766;28;1474;-74
2023/04/16 00:40:03;;;;;;;313.35;134.85;;;;;;;14.28;62.78;99099.16;339145;28;3631;-74
2023/04/16 00:40:13;;;;;;;313.17;134.93;;;;;;;14.26;62.65;99098.41;339360;29;1578;-74
2023/04/16 00:40:27;;;;;;;317.15;137.63;;;;;;;14.25;62.92;99096.72;337934;28;3988;-74
2023/04/16 00:40:37;;;;;;;314.25;137.25;;;;;;;14.23;63.04;99101.25;335875;29;3723;-74
2023/04/16 00:40:48;;;;;;;315.57;136.77;;;;;;;14.24;62.95;99099.47;331629;29;6696;-74
2023/04/16 00:40:58;;;;;;;310.38;132.95;;;;;;;14.23;62.93;99095.97;331340;29;3614;-74
2023/04/16 00:41:09;;;;;;;313.00;133.50;;;;;;;14.24;62.81;99097.66;333968;29;4871;-74
2023/04/16 00:41:19;;;;;;;310.92;132.48;;;;;;;14.23;62.93;99098.59;332782;29;3655;-74
2023/04/16 00:41:29;;;;;;;312.00;134.17;;;;;;;14.21;62.95;99097.88;333885;29;2760;-74
2023/04/16 00:41:41;;;;;;;307.97;131.80;;;;;;;14.25;63.01;99101.16;328722;29;3637;-73
2023/04/16 00:41:51;;;;;;;305.65;131.43;;;;;;;14.25;63.06;99096.72;328592;29;3193;-74
2023/04/16 00:42:02;;;;;;;305.17;130.73;;;;;;;14.23;63.26;99092.50;326915;30;3651;-73
2023/04/16 00:42:12;;;;;;;307.23;134.05;;;;;;;14.26;62.94;99097.56;325507;30;4289;-73
2023/04/16 00:42:22;;;;;;;308.57;134.17;;;;;;;14.25;63.40;99096.72;325963;30;2568;-73
2023/04/16 00:42:35;;;;;;;309.63;135.60;;;;;;;14.23;63.33;99095.97;324434;30;4497;-73
2023/04/16 00:42:46;;;;;;;309.73;133.40;;;;;;;14.22;63.21;99098.72;321445;30;4836;-74
2023/04/16 00:42:56;;;;;;;305.93;131.10;;;;;;;14.22;63.27;99096.06;321836;30;2905;-74
2023/04/16 00:43:06;;;;;;;304.27;128.50;;;;;;;14.22;63.63;99096.91;320714;30;3676;-74
2023/04/16 00:43:24;;;;;;;305.83;130.45;;;;;;;14.20;63.44;99088.28;320231;30;4660;-74
2023/04/16 00:43:34;;;;;;;308.55;133.68;;;;;;;14.22;63.34;99096.91;320088;30;4769;-74
2023/04/16 00:43:45;;;;;;;306.35;131.48;;;;;;;14.24;64.03;99096.81;322687;30;1845;-74
2023/04/16 00:43:55;;;;;;;308.50;133.03;;;;;;;14.25;63.89;99104.63;319295;30;3695;-74
2023/04/16 00:44:06;;;;;;;309.70;133.75;;;;;;;14.23;64.01;99088.09;316278;30;2863;-74
2023/04/16 00:44:16;;;;;;;312.50;135.47;;;;;;;14.25;63.78;99096.72;318433;30;2876;-74
2023/04/16 00:44:27;;;;;;;312.13;136.03;;;;;;;14.26;63.97;99097.56;318865;30;3405;-74
2023/04/16 00:44:37;;;;;;;309.58;133.52;;;;;;;14.28;63.98;99096.53;319691;30;3513;-74
2023/04/16 00:44:47;;;;;;;309.15;134.70;;;;;;;14.27;64.06;99097.47;319277;30;4019;-74
2023/04/16 00:44:58;;;;;;;309.37;133.70;;;;;;;14.26;64.31;99101.03;319333;30;3516;-74
2023/04/16 00:45:09;;;;;;;312.00;137.03;;;;;;;14.26;64.43;99098.41;316530;30;3609;-74
2023/04/16 00:45:20;;;;;;;313.13;135.82;;;;;;;14.25;64.28;99094.09;312969;31;3726;-74
2023/04/16 00:45:30;;;;;;;311.17;134.57;;;;;;;14.25;64.42;99099.34;311287;31;4671;-74
2023/04/16 00:45:41;;;;;;;307.08;131.38;;;;;;;14.28;64.78;99106.22;318135;30;3763;-74
2023/04/16 00:45:51;;;;;;;307.80;133.43;;;;;;;14.26;64.89;99101.03;317880;30;4970;-74
2023/04/16 00:46:02;;;;;;;307.67;132.95;;;;;;;14.26;64.96;99098.41;317126;31;3729;-74
2023/04/16 00:46:12;;;;;;;309.85;133.52;;;;;;;14.24;65.18;99097.66;316099;31;4581;-74
2023/04/16 00:46:23;;;;;;;309.10;132.47;;;;;;;14.22;65.31;99099.56;315622;31;3405;-74
2023/04/16 00:46:33;;;;;;;310.43;133.93;;;;;;;14.20;65.42;99093.53;314863;31;4738;-73
2023/04/16 00:46:44;;;;;;;310.17;133.30;;;;;;;14.20;65.50;99104.06;314355;31;4140;-73
2023/04/16 00:46:55;;;;;;;310.23;134.05;;;;;;;14.20;65.91;99098.81;311478;31;4805;-74
2023/04/16 00:47:06;;;;;;;307.52;132.30;;;;;;;14.19;65.83;99105.00;314003;31;4462;-74
2023/04/16 00:47:16;;;;;;;307.23;132.23;;;;;;;14.17;66.00;99099.00;312340;31;4654;-74
2023/04/16 00:47:27;;;;;;;307.07;131.70;;;;;;;14.19;65.93;99096.28;308208;31;4305;-73
2023/04/16 00:47:37;;;;;;;309.85;133.95;;;;;;;14.20;65.86;99103.22;310450;31;4784;-73
2023/04/16 00:47:48;;;;;;;308.20;133.57;;;;;;;14.19;66.43;99105.00;306962;31;6368;-74
2023/04/16 00:47:58;;;;;;;308.17;133.18;;;;;;;14.18;66.15;99100.69;303985;32;3008;-74
2023/04/16 00:48:09;;;;;;;306.40;130.25;;;;;;;14.16;66.30;99097.31;299013;32;3663;-73
2023/04/16 00:48:20;;;;;;;308.73;132.07;;;;;;;14.17;66.00;99099.00;299269;32;5947;-74
2023/04/16 00:48:31;;;;;;;310.27;133.02;;;;;;;14.19;66.41;99106.78;302881;32;5411;-74
2023/04/16 00:48:42;;;;;;;312.35;135.05;;;;;;;14.18;66.51;99105.94;302043;32;4354;-74
2023/04/16 00:48:53;;;;;;;311.67;134.03;;;;;;;14.17;66.82;99104.25;297175;32;5494;-74
2023/04/16 00:49:03;;;;;;;312.52;133.70;;;;;;;14.15;66.82;99100.88;296404;33;6305;-74
2023/04/16 00:49:13;;;;;;;310.07;132.47;;;;;;;14.16;67.08;99102.56;294606;33;4218;-73
2023/04/16 00:49:24;;;;;;;309.00;128.38;;;;;;;14.15;67.05;99103.50;295990;32;6533;-74
2023/04/16 00:49:34;;;;;;;307.53;128.47;;;;;;;14.15;67.16;99105.31;294208;33;6174;-74
2023/04/16 00:49:45;;;;;;;309.15;129.98;;;;;;;14.16;67.25;99097.31;292075;33;6298;-74
2023/04/16 00:49:55;;;;;;;308.55;132.32;;;;;;;14.17;67.84;99101.63;295972;33;3793;-74
2023/04/16 00:50:06;;;;;;;308.37;134.53;;;;;;;14.16;68.38;99101.72;290341;33;5252;-74
2023/04/16 00:50:17;;;;;;;307.15;132.95;;;;;;;14.15;69.00;99100.03;289174;33;4250;-74
2023/04/16 00:50:27;;;;;;;307.88;133.82;;;;;;;14.14;69.11;99100.97;286390;34;5728;-74
2023/04/16 00:50:37;;;;;;;309.77;133.17;;;;;;;14.14;69.42;99104.47;285885;34;5393;-74
2023/04/16 00:50:48;;;;;;;310.27;133.33;;;;;;;14.13;69.60;99097.50;285762;34;7507;-74
2023/04/16 00:51:00;;;;;;;309.95;132.15;;;;;;;14.13;69.69;99101.91;285090;34;3726;-74
2023/04/16 00:51:10;;;;;;;306.60;131.45;;;;;;;14.12;70.02;99101.06;281338;35;4628;-74
2023/04/16 00:51:21;;;;;;;307.70;130.40;;;;;;;14.11;70.09;99096.75;282349;34;8937;-74
2023/04/16 00:51:31;;;;;;;308.90;132.52;;;;;;;14.11;69.96;99096.75;281321;34;9423;-74
2023/04/16 00:51:42;;;;;;;310.70;133.47;;;;;;;14.10;69.96;99100.31;281796;35;916;-74
2023/04/16 00:51:52;;;;;;;310.02;134.52;;;;;;;14.11;70.30;99103.81;276845;35;9009;-74